Weather History for Athens, OH

Change the Weather History Date:

Sunday, November 25, 2012

  Actual Average (KPKB) Record (KPKB)
Temperature  
Mean Temperature 34 °F 42 °F  
Max Temperature 43 °F 51 °F 75 °F (1908)
Min Temperature 25 °F 33 °F 9 °F (1950)
Degree Days  
Heating Degree Days 31 23  
Month to date heating degree days 470  
Since 1 July heating degree days 864  
Cooling Degree Days 0 0  
Month to date cooling degree days 0  
Year to date cooling degree days 953  
Moisture  
Dew Point 21 °F    
Average Humidity 63    
Maximum Humidity 79    
Minimum Humidity 38    
Precipitation  
Precipitation 0.00 in 0.11 in 0.89 in (2010)
Month to date precipitation 2.79  
Year to date precipitation 37.52  
Sea Level Pressure  
Sea Level Pressure 30.02 in    
Wind  
Wind Speed 4 mph (SSW)    
Max Wind Speed 16 mph    
Max Gust Speed 23 mph    
Visibility 10 miles    
Events      
T = Trace of Precipitation, MM = Missing Value Source: NWS Daily Summary

Daily Weather History Graph

Daily Weather History Graph

Search for Another Location

Airport:

Trip Planner

Search our weather history database for the weather conditions in past years. The results will help you decide how hot, cold, wet, or windy it might be!

Date:

Astronomy

Nov. 25, 2012 Rise Set
Actual Time 7:23 AM EST 5:08 PM EST
Civil Twilight 6:54 AM EST 5:37 PM EST
Nautical Twilight 6:21 AM EST 6:10 PM EST
Astronomical Twilight 5:49 AM EST 6:42 PM EST
Moon 3:23 PM EST 4:37 AM EST
Length of Visible Light 10h 43m
Length of Day
9h 44m
Waxing Gibbous, 93% of the Moon is Illuminated
Nov 25
Waxing Gibbous
Nov 28
Full
Dec 6
Last Quarter
Dec 13
New
Dec 20
First Quarter

Hourly Weather History & Observations

Time (EST) Temp. Windchill Dew Point Humidity Pressure Visibility Wind Dir Wind Speed Gust Speed Precip Events Conditions
12:15 AM 31.1 °F 26.4 °F 19.8 °F 63% 30.12 in 10.0 mi WSW 4.6 mph - N/A   Overcast
12:35 AM 30.9 °F 24.3 °F 19.8 °F 63% 30.12 in 10.0 mi WSW 6.9 mph - N/A   Overcast
12:55 AM 30.6 °F 23.8 °F 18.5 °F 61% 30.11 in 10.0 mi SW 6.9 mph - N/A   Mostly Cloudy
1:15 AM 28.4 °F 23.3 °F 18.3 °F 66% 30.11 in 10.0 mi SW 4.6 mph - N/A   Scattered Clouds
1:35 AM 27.3 °F 23.4 °F 18.3 °F 69% 30.11 in 10.0 mi SW 3.5 mph - N/A   Clear
1:55 AM 27.0 °F - 18.5 °F 70% 30.10 in 10.0 mi Calm Calm - N/A   Clear
2:15 AM 25.9 °F - 17.8 °F 71% 30.11 in 10.0 mi Calm Calm - N/A   Clear
2:35 AM 25.3 °F - 18.3 °F 75% 30.10 in 10.0 mi Calm Calm - N/A   Clear
2:55 AM 25.9 °F - 19.4 °F 76% 30.09 in 10.0 mi Calm Calm - N/A   Clear
3:15 AM 26.4 °F - 19.4 °F 75% 30.10 in 10.0 mi Calm Calm - N/A   Clear
3:35 AM 26.2 °F - 20.3 °F 78% 30.10 in 10.0 mi Calm Calm - N/A   Clear
3:55 AM 27.3 °F - 20.3 °F 75% 30.09 in 10.0 mi Calm Calm - N/A   Clear
4:15 AM 28.0 °F 24.2 °F 19.9 °F 72% 30.09 in 10.0 mi South 3.5 mph - N/A   Mostly Cloudy
4:35 AM 28.4 °F 23.3 °F 19.9 °F 71% 30.09 in 10.0 mi South 4.6 mph - N/A   Mostly Cloudy
4:55 AM 28.2 °F 24.4 °F 19.9 °F 71% 30.08 in 10.0 mi South 3.5 mph - N/A   Scattered Clouds
5:15 AM 28.2 °F 22.0 °F 20.1 °F 72% 30.09 in 10.0 mi South 5.8 mph - N/A   Scattered Clouds
5:35 AM 28.2 °F 22.0 °F 20.1 °F 72% 30.09 in 10.0 mi SSW 5.8 mph - N/A   Clear
5:55 AM 28.0 °F 24.2 °F 20.3 °F 73% 30.08 in 10.0 mi South 3.5 mph - N/A   Clear
6:35 AM 28.0 °F 21.7 °F 20.3 °F 73% 30.08 in 10.0 mi SSW 5.8 mph - N/A   Clear
6:55 AM 28.2 °F 22.0 °F 20.3 °F 72% 30.09 in 10.0 mi SSW 5.8 mph - N/A   Clear
7:15 AM 28.0 °F 20.8 °F 20.3 °F 73% 30.07 in 10.0 mi South 6.9 mph - N/A   Clear
7:35 AM 28.4 °F 23.3 °F 20.1 °F 71% 30.07 in 10.0 mi SSW 4.6 mph - N/A   Mostly Cloudy
7:55 AM 28.4 °F 22.2 °F 20.1 °F 71% 30.06 in 10.0 mi South 5.8 mph - N/A   Mostly Cloudy
8:15 AM 28.8 °F 20.9 °F 20.1 °F 70% 30.06 in 10.0 mi South 8.1 mph - N/A   Scattered Clouds
8:35 AM 29.1 °F 23.0 °F 20.1 °F 69% 30.06 in 10.0 mi South 5.8 mph - N/A   Mostly Cloudy
8:55 AM 29.7 °F 24.7 °F 20.1 °F 68% 30.06 in 10.0 mi SSW 4.6 mph - N/A   Overcast
9:15 AM 30.2 °F 24.3 °F 20.3 °F 67% 30.04 in 10.0 mi SSW 5.8 mph - N/A   Overcast
9:35 AM 31.1 °F 26.4 °F 20.5 °F 65% 30.03 in 10.0 mi SSW 4.6 mph - N/A   Overcast
9:55 AM 31.6 °F 23.7 °F 20.3 °F 63% 30.02 in 10.0 mi SSW 9.2 mph - N/A   Mostly Cloudy
10:15 AM 32.0 °F 24.8 °F 20.3 °F 62% 30.03 in 10.0 mi SSW 8.1 mph - N/A   Mostly Cloudy
10:35 AM 32.0 °F 25.6 °F 20.5 °F 63% 30.02 in 10.0 mi SSW 6.9 mph - N/A   Overcast
10:55 AM 32.5 °F 24.8 °F 20.7 °F 62% 30.02 in 10.0 mi SSW 9.2 mph - N/A   Scattered Clouds
11:15 AM 33.3 °F 27.1 °F 21.2 °F 61% 30.02 in 10.0 mi SSW 6.9 mph - N/A   Clear
11:35 AM 34.5 °F 27.9 °F 21.4 °F 59% 30.00 in 10.0 mi South 8.1 mph - N/A   Clear
12:15 PM 37.8 °F 32.5 °F 21.2 °F 51% 29.98 in 10.0 mi SSW 6.9 mph - N/A   Clear
12:35 PM 39.4 °F 31.4 °F 19.2 °F 44% 29.96 in 10.0 mi SW 13.8 mph 18.4 mph N/A   Clear
12:55 PM 40.6 °F 34.8 °F 19.2 °F 42% 29.95 in 10.0 mi SW 9.2 mph - N/A   Clear
1:15 PM 41.2 °F 33.0 °F 18.1 °F 40% 29.94 in 10.0 mi SW 16.1 mph 21.9 mph N/A   Clear
1:35 PM 41.9 °F 34.6 °F 18.9 °F 40% 29.93 in 10.0 mi WSW 13.8 mph 23.0 mph N/A   Clear
2:15 PM 42.6 °F 35.9 °F 19.2 °F 39% 29.92 in 10.0 mi SW 12.7 mph 18.4 mph N/A   Clear
2:35 PM 43.0 °F 37.2 °F 19.2 °F 39% 29.91 in 10.0 mi SW 10.4 mph 23.0 mph N/A   Clear
2:55 PM 43.3 °F 38.6 °F 19.4 °F 38% 29.91 in 10.0 mi SW 8.1 mph - N/A   Clear
3:15 PM 43.0 °F 37.2 °F 19.4 °F 39% 29.90 in 10.0 mi SSW 10.4 mph 17.3 mph N/A   Clear
3:35 PM 42.4 °F 37.0 °F 19.6 °F 40% 29.92 in 10.0 mi SW 9.2 mph - N/A   Clear
3:55 PM 42.3 °F 35.9 °F 20.1 °F 41% 29.91 in 10.0 mi WSW 11.5 mph - N/A   Clear
4:35 PM 40.5 °F 38.4 °F 21.0 °F 46% 29.92 in 10.0 mi WSW 3.5 mph - N/A   Clear
4:55 PM 40.3 °F - 20.8 °F 46% 29.92 in 10.0 mi Calm Calm - N/A   Clear
5:15 PM 39.7 °F - 22.1 °F 49% 29.93 in 10.0 mi Calm Calm - N/A   Clear
5:35 PM 38.1 °F - 23.7 °F 56% 29.94 in 10.0 mi Calm Calm - N/A   Clear
5:55 PM 37.4 °F - 22.8 °F 56% 29.94 in 10.0 mi Calm Calm - N/A   Clear
6:15 PM 36.7 °F - 23.9 °F 60% 29.95 in 10.0 mi Calm Calm - N/A   Clear
6:35 PM 37.0 °F - 23.5 °F 58% 29.95 in 10.0 mi Calm Calm - N/A   Scattered Clouds
6:55 PM 37.4 °F - 23.0 °F 56% 29.96 in 10.0 mi Calm Calm - N/A   Clear
7:15 PM 36.5 °F - 24.4 °F 62% 29.95 in 10.0 mi Calm Calm - N/A   Clear
7:35 PM 35.8 °F - 25.7 °F 67% 29.96 in 10.0 mi Calm Calm - N/A   Clear
7:55 PM 36.1 °F - 24.6 °F 63% 29.97 in 10.0 mi Calm Calm - N/A   Clear
8:15 PM 35.4 °F - 26.1 °F 69% 29.97 in 10.0 mi Calm Calm - N/A   Clear
8:35 PM 34.7 °F - 25.5 °F 69% 29.98 in 10.0 mi Calm Calm - N/A   Clear
8:55 PM 34.5 °F - 25.9 °F 71% 29.98 in 10.0 mi Calm Calm - N/A   Clear
9:15 PM 33.1 °F - 25.7 °F 74% 29.99 in 10.0 mi Calm Calm - N/A   Clear
9:35 PM 33.1 °F - 25.3 °F 73% 29.99 in 10.0 mi Calm Calm - N/A   Clear
9:55 PM 33.3 °F - 25.0 °F 72% 29.99 in 10.0 mi Calm Calm - N/A   Clear
10:15 PM 33.3 °F - 26.2 °F 75% 29.99 in 10.0 mi Calm Calm - N/A   Clear
10:35 PM 33.3 °F - 27.5 °F 79% 29.99 in 10.0 mi Calm Calm - N/A   Clear
10:55 PM 33.4 °F - 26.8 °F 77% 29.99 in 10.0 mi Calm Calm - N/A   Clear
11:15 PM 33.3 °F - 27.3 °F 79% 30.00 in 10.0 mi Calm Calm - N/A   Clear
11:35 PM 33.8 °F - 26.8 °F 75% 30.01 in 10.0 mi Calm Calm - N/A   Clear
11:55 PM 33.6 °F - 27.3 °F 78% 30.02 in 10.0 mi Calm Calm - N/A   Mostly Cloudy